ADDS METAR Data INFO
IDs: Format: Raw Decoded Include TAF

Data at: 1131 UTC 29 May 2017

METAR for:PASD (Sand Point Arpt, AK, US)
Text:PASD 291116Z AUTO 00000KT 10SM CLR 04/02 A2982 RMK AO1
Temperature: 4.0°C ( 39°F)
Dewpoint: 2.0°C ( 36°F) [RH = 87%]
Pressure (altimeter):29.82 inches Hg (1009.9 mb)
Winds:calm
Visibility:10 or more sm (16+ km)
Ceiling:at least 12,000 feet AGL
Clouds:sky clear below 12,000 feet AGL
QC Flag:automated observation with no human augmentation
Text:PASD 291056Z AUTO 00000KT 10SM CLR 04/02 A2982 RMK AO1
Temperature: 4.0°C ( 39°F)
Dewpoint: 2.0°C ( 36°F) [RH = 87%]
Pressure (altimeter):29.82 inches Hg (1009.9 mb)
Winds:calm
Visibility:10 or more sm (16+ km)
Ceiling:at least 12,000 feet AGL
Clouds:sky clear below 12,000 feet AGL
QC Flag:automated observation with no human augmentation
Text:PASD 291036Z AUTO 00000KT 10SM CLR 04/02 A2982 RMK AO1
Temperature: 4.0°C ( 39°F)
Dewpoint: 2.0°C ( 36°F) [RH = 87%]
Pressure (altimeter):29.82 inches Hg (1009.9 mb)
Winds:calm
Visibility:10 or more sm (16+ km)
Ceiling:at least 12,000 feet AGL
Clouds:sky clear below 12,000 feet AGL
QC Flag:automated observation with no human augmentation
Text:PASD 291016Z AUTO 00000KT 10SM CLR 05/02 A2982 RMK AO1
Temperature: 5.0°C ( 41°F)
Dewpoint: 2.0°C ( 36°F) [RH = 81%]
Pressure (altimeter):29.82 inches Hg (1009.9 mb)
Winds:calm
Visibility:10 or more sm (16+ km)
Ceiling:at least 12,000 feet AGL
Clouds:sky clear below 12,000 feet AGL
QC Flag:automated observation with no human augmentation
Text:PASD 290956Z AUTO 00000KT 10SM CLR 05/02 A2982 RMK AO1
Temperature: 5.0°C ( 41°F)
Dewpoint: 2.0°C ( 36°F) [RH = 81%]
Pressure (altimeter):29.82 inches Hg (1009.9 mb)
Winds:calm
Visibility:10 or more sm (16+ km)
Ceiling:at least 12,000 feet AGL
Clouds:sky clear below 12,000 feet AGL
QC Flag:automated observation with no human augmentation
Text:PASD 290936Z AUTO 00000KT 10SM CLR 04/02 A2981 RMK AO1
Temperature: 4.0°C ( 39°F)
Dewpoint: 2.0°C ( 36°F) [RH = 87%]
Pressure (altimeter):29.81 inches Hg (1009.6 mb)
Winds:calm
Visibility:10 or more sm (16+ km)
Ceiling:at least 12,000 feet AGL
Clouds:sky clear below 12,000 feet AGL
QC Flag:automated observation with no human augmentation
Text:PASD 290916Z AUTO 00000KT 10SM CLR 05/02 A2981 RMK AO1
Temperature: 5.0°C ( 41°F)
Dewpoint: 2.0°C ( 36°F) [RH = 81%]
Pressure (altimeter):29.81 inches Hg (1009.6 mb)
Winds:calm
Visibility:10 or more sm (16+ km)
Ceiling:at least 12,000 feet AGL
Clouds:sky clear below 12,000 feet AGL
QC Flag:automated observation with no human augmentation
Text:PASD 290856Z AUTO 00000KT 10SM CLR 05/02 A2981 RMK AO1 52014
Temperature: 5.0°C ( 41°F)
Dewpoint: 2.0°C ( 36°F) [RH = 81%]
Pressure (altimeter):29.81 inches Hg (1009.6 mb)
Winds:calm
Visibility:10 or more sm (16+ km)
Ceiling:at least 12,000 feet AGL
Clouds:sky clear below 12,000 feet AGL
QC Flag:automated observation with no human augmentation
Text:PASD 290836Z AUTO 00000KT 10SM CLR 06/02 A2981 RMK AO1
Temperature: 6.0°C ( 43°F)
Dewpoint: 2.0°C ( 36°F) [RH = 75%]
Pressure (altimeter):29.81 inches Hg (1009.6 mb)
Winds:calm
Visibility:10 or more sm (16+ km)
Ceiling:at least 12,000 feet AGL
Clouds:sky clear below 12,000 feet AGL
QC Flag:automated observation with no human augmentation
Text:PASD 290816Z AUTO 00000KT 10SM CLR 07/02 A2980 RMK AO1
Temperature: 7.0°C ( 45°F)
Dewpoint: 2.0°C ( 36°F) [RH = 70%]
Pressure (altimeter):29.80 inches Hg (1009.2 mb)
Winds:calm
Visibility:10 or more sm (16+ km)
Ceiling:at least 12,000 feet AGL
Clouds:sky clear below 12,000 feet AGL
QC Flag:automated observation with no human augmentation
Text:PASD 290756Z AUTO 00000KT 10SM FEW043 07/02 A2980 RMK AO1
Temperature: 7.0°C ( 45°F)
Dewpoint: 2.0°C ( 36°F) [RH = 70%]
Pressure (altimeter):29.80 inches Hg (1009.2 mb)
Winds:calm
Visibility:10 or more sm (16+ km)
Ceiling:at least 12,000 feet AGL
Clouds: few clouds at 4300 feet AGL
QC Flag:automated observation with no human augmentation
Text:PASD 290736Z AUTO 08004KT 10SM SCT043 07/02 A2979 RMK AO1
Temperature: 7.0°C ( 45°F)
Dewpoint: 2.0°C ( 36°F) [RH = 70%]
Pressure (altimeter):29.79 inches Hg (1008.9 mb)
Winds:from the E (80 degrees) at 5 MPH (4 knots; 2.1 m/s)
Visibility:10 or more sm (16+ km)
Ceiling:at least 12,000 feet AGL
Clouds: scattered clouds at 4300 feet AGL
QC Flag:automated observation with no human augmentation
Text:PASD 290716Z AUTO 09004KT 10SM BKN043 08/02 A2979 RMK AO1
Temperature: 8.0°C ( 46°F)
Dewpoint: 2.0°C ( 36°F) [RH = 66%]
Pressure (altimeter):29.79 inches Hg (1008.9 mb)
Winds:from the E (90 degrees) at 5 MPH (4 knots; 2.1 m/s)
Visibility:10 or more sm (16+ km)
Ceiling:4300 feet AGL
Clouds: broken clouds at 4300 feet AGL
QC Flag:automated observation with no human augmentation
Text:PASD 290656Z AUTO 08003KT 10SM SCT043 08/02 A2978 RMK AO1
Temperature: 8.0°C ( 46°F)
Dewpoint: 2.0°C ( 36°F) [RH = 66%]
Pressure (altimeter):29.78 inches Hg (1008.5 mb)
Winds:from the E (80 degrees) at 3 MPH (3 knots; 1.5 m/s)
Visibility:10 or more sm (16+ km)
Ceiling:at least 12,000 feet AGL
Clouds: scattered clouds at 4300 feet AGL
QC Flag:automated observation with no human augmentation
Text:PASD 290636Z AUTO 09003KT 10SM CLR 09/02 A2978 RMK AO1
Temperature: 9.0°C ( 48°F)
Dewpoint: 2.0°C ( 36°F) [RH = 61%]
Pressure (altimeter):29.78 inches Hg (1008.5 mb)
Winds:from the E (90 degrees) at 3 MPH (3 knots; 1.5 m/s)
Visibility:10 or more sm (16+ km)
Ceiling:at least 12,000 feet AGL
Clouds:sky clear below 12,000 feet AGL
QC Flag:automated observation with no human augmentation

TAF for:PASD (Sand Point Arpt, AK, US) issued at 0539 UTC 29 May 2017
Text:PASD 290539Z 2906/3006 33007KT P6SM SCT040
Forecast period:0600 UTC 29 May 2017 to 0000 UTC 30 May 2017
Forecast type:FROM: standard forecast or significant change
Winds:from the NNW (330 degrees) at 8 MPH (7 knots; 3.6 m/s)
Visibility:6 or more sm (10+ km)
Ceiling:at least 12,000 feet AGL
Clouds: scattered clouds at 4000 feet AGL
Text:FM300000 10008KT P6SM SCT009 OVC025 AMD LTD TO CLD VIS AND WIND
Forecast period:0000 to 0600 UTC 30 May 2017
Forecast type:FROM: standard forecast or significant change
Winds:from the E (100 degrees) at 9 MPH (8 knots; 4.1 m/s)
Visibility:6 or more sm (10+ km)
Ceiling:2500 feet AGL
Clouds: scattered clouds at 900 feet AGL, overcast cloud deck at 2500 feet AGL


Page loaded:  11:31 UTC  |   04:31 AM Pacific  |   05:31 AM Mountain  |   06:31 AM Central  |   07:31 AM Eastern

 

ADVISORIES

FORECASTS

FORECASTS

OBSERVATIONS

USER TOOLS

ABOUT US